sensor_id;sensor_type;location;lat;lon;timestamp;P1;durP1;ratioP1;P2;durP2;ratioP2
55601;SDS011;59921;51.332;12.410;2023-02-03T00:01:41;2.80;;;1.50;;
55601;SDS011;59921;51.332;12.410;2023-02-03T00:04:07;2.00;;;1.50;;
55601;SDS011;59921;51.332;12.410;2023-02-03T00:06:32;3.25;;;1.90;;
55601;SDS011;59921;51.332;12.410;2023-02-03T00:08:58;3.15;;;1.80;;
55601;SDS011;59921;51.332;12.410;2023-02-03T00:11:25;2.63;;;1.80;;
55601;SDS011;59921;51.332;12.410;2023-02-03T00:13:55;2.72;;;1.85;;
55601;SDS011;59921;51.332;12.410;2023-02-03T00:16:20;2.90;;;1.67;;
55601;SDS011;59921;51.332;12.410;2023-02-03T00:18:46;2.75;;;1.63;;
55601;SDS011;59921;51.332;12.410;2023-02-03T00:21:11;3.28;;;1.55;;
55601;SDS011;59921;51.332;12.410;2023-02-03T00:23:39;3.28;;;1.77;;
55601;SDS011;59921;51.332;12.410;2023-02-03T00:26:08;2.35;;;1.48;;
55601;SDS011;59921;51.332;12.410;2023-02-03T00:28:35;2.78;;;1.70;;
55601;SDS011;59921;51.332;12.410;2023-02-03T00:31:01;2.72;;;1.58;;
55601;SDS011;59921;51.332;12.410;2023-02-03T00:33:26;3.17;;;1.70;;
55601;SDS011;59921;51.332;12.410;2023-02-03T00:35:52;2.45;;;1.50;;
55601;SDS011;59921;51.332;12.410;2023-02-03T00:38:17;2.47;;;1.60;;
55601;SDS011;59921;51.332;12.410;2023-02-03T00:40:50;2.45;;;1.48;;
55601;SDS011;59921;51.332;12.410;2023-02-03T00:43:17;2.67;;;1.70;;
55601;SDS011;59921;51.332;12.410;2023-02-03T00:45:43;2.60;;;1.45;;
55601;SDS011;59921;51.332;12.410;2023-02-03T00:48:09;2.67;;;1.60;;
55601;SDS011;59921;51.332;12.410;2023-02-03T00:50:34;2.70;;;1.65;;
55601;SDS011;59921;51.332;12.410;2023-02-03T00:53:00;3.10;;;1.58;;
55601;SDS011;59921;51.332;12.410;2023-02-03T00:55:25;2.05;;;1.60;;
55601;SDS011;59921;51.332;12.410;2023-02-03T00:57:51;3.22;;;1.75;;
55601;SDS011;59921;51.332;12.410;2023-02-03T01:00:17;3.28;;;1.58;;
55601;SDS011;59921;51.332;12.410;2023-02-03T01:02:43;2.63;;;1.60;;
55601;SDS011;59921;51.332;12.410;2023-02-03T01:05:09;2.75;;;1.60;;
55601;SDS011;59921;51.332;12.410;2023-02-03T01:07:35;2.53;;;1.50;;
55601;SDS011;59921;51.332;12.410;2023-02-03T01:10:01;2.22;;;1.48;;
55601;SDS011;59921;51.332;12.410;2023-02-03T01:12:30;2.10;;;1.40;;
55601;SDS011;59921;51.332;12.410;2023-02-03T01:14:56;2.00;;;1.40;;
55601;SDS011;59921;51.332;12.410;2023-02-03T01:17:22;1.95;;;1.25;;
55601;SDS011;59921;51.332;12.410;2023-02-03T01:19:49;2.45;;;1.40;;
55601;SDS011;59921;51.332;12.410;2023-02-03T01:22:15;2.15;;;1.40;;
55601;SDS011;59921;51.332;12.410;2023-02-03T01:24:40;3.42;;;1.60;;
55601;SDS011;59921;51.332;12.410;2023-02-03T01:27:05;2.20;;;1.35;;
55601;SDS011;59921;51.332;12.410;2023-02-03T01:29:31;2.17;;;1.30;;
55601;SDS011;59921;51.332;12.410;2023-02-03T01:31:56;2.53;;;1.38;;
55601;SDS011;59921;51.332;12.410;2023-02-03T01:34:22;2.40;;;1.45;;
55601;SDS011;59921;51.332;12.410;2023-02-03T01:36:47;2.03;;;1.27;;
55601;SDS011;59921;51.332;12.410;2023-02-03T01:39:13;2.25;;;1.40;;
55601;SDS011;59921;51.332;12.410;2023-02-03T01:41:39;1.83;;;1.30;;
55601;SDS011;59921;51.332;12.410;2023-02-03T01:47:05;3.00;;;1.40;;
55601;SDS011;59921;51.332;12.410;2023-02-03T01:49:40;2.38;;;1.40;;
55601;SDS011;59921;51.332;12.410;2023-02-03T01:52:08;2.28;;;1.20;;
55601;SDS011;59921;51.332;12.410;2023-02-03T01:54:35;1.70;;;1.25;;
55601;SDS011;59921;51.332;12.410;2023-02-03T01:57:07;2.38;;;1.17;;
55601;SDS011;59921;51.332;12.410;2023-02-03T02:02:05;2.03;;;1.15;;
55601;SDS011;59921;51.332;12.410;2023-02-03T02:07:32;2.90;;;1.38;;
55601;SDS011;59921;51.332;12.410;2023-02-03T02:10:00;2.65;;;1.60;;
55601;SDS011;59921;51.332;12.410;2023-02-03T02:12:27;2.88;;;1.40;;
55601;SDS011;59921;51.332;12.410;2023-02-03T02:14:52;2.42;;;1.25;;
55601;SDS011;59921;51.332;12.410;2023-02-03T02:20:23;2.58;;;1.25;;
55601;SDS011;59921;51.332;12.410;2023-02-03T02:39:48;1.73;;;1.05;;
55601;SDS011;59921;51.332;12.410;2023-02-03T02:45:28;2.08;;;1.10;;
55601;SDS011;59921;51.332;12.410;2023-02-03T02:48:01;1.65;;;0.98;;
55601;SDS011;59921;51.332;12.410;2023-02-03T02:50:33;1.52;;;1.00;;
55601;SDS011;59921;51.332;12.410;2023-02-03T02:53:04;1.70;;;0.95;;
55601;SDS011;59921;51.332;12.410;2023-02-03T02:55:31;2.08;;;1.27;;
55601;SDS011;59921;51.332;12.410;2023-02-03T02:58:06;1.30;;;1.10;;
55601;SDS011;59921;51.332;12.410;2023-02-03T03:00:37;1.77;;;1.10;;
55601;SDS011;59921;51.332;12.410;2023-02-03T03:03:11;1.27;;;0.90;;
55601;SDS011;59921;51.332;12.410;2023-02-03T03:05:38;2.20;;;1.00;;
55601;SDS011;59921;51.332;12.410;2023-02-03T03:08:06;2.58;;;1.15;;
55601;SDS011;59921;51.332;12.410;2023-02-03T03:10:37;1.20;;;0.90;;
55601;SDS011;59921;51.332;12.410;2023-02-03T03:13:07;1.73;;;1.00;;
55601;SDS011;59921;51.332;12.410;2023-02-03T03:15:38;1.13;;;1.00;;
55601;SDS011;59921;51.332;12.410;2023-02-03T03:18:19;1.70;;;1.10;;
55601;SDS011;59921;51.332;12.410;2023-02-03T03:20:49;1.65;;;1.00;;
55601;SDS011;59921;51.332;12.410;2023-02-03T03:23:18;1.58;;;0.90;;
55601;SDS011;59921;51.332;12.410;2023-02-03T03:28:25;1.73;;;1.15;;
55601;SDS011;59921;51.332;12.410;2023-02-03T03:31:00;1.35;;;1.00;;
55601;SDS011;59921;51.332;12.410;2023-02-03T03:33:26;1.15;;;0.90;;
55601;SDS011;59921;51.332;12.410;2023-02-03T03:35:56;1.52;;;1.02;;
55601;SDS011;59921;51.332;12.410;2023-02-03T03:38:35;1.50;;;1.00;;
55601;SDS011;59921;51.332;12.410;2023-02-03T03:41:14;1.70;;;1.10;;
55601;SDS011;59921;51.332;12.410;2023-02-03T03:43:45;1.38;;;0.80;;
55601;SDS011;59921;51.332;12.410;2023-02-03T03:46:13;1.40;;;0.98;;
55601;SDS011;59921;51.332;12.410;2023-02-03T03:48:53;1.63;;;1.10;;
55601;SDS011;59921;51.332;12.410;2023-02-03T03:51:29;1.23;;;1.00;;
55601;SDS011;59921;51.332;12.410;2023-02-03T03:54:01;1.25;;;1.00;;
55601;SDS011;59921;51.332;12.410;2023-02-03T03:56:31;1.85;;;1.10;;
55601;SDS011;59921;51.332;12.410;2023-02-03T03:59:01;1.77;;;1.20;;
55601;SDS011;59921;51.332;12.410;2023-02-03T04:01:29;1.67;;;1.13;;
55601;SDS011;59921;51.332;12.410;2023-02-03T04:03:57;1.52;;;1.10;;
55601;SDS011;59921;51.332;12.410;2023-02-03T04:06:26;1.63;;;1.10;;
55601;SDS011;59921;51.332;12.410;2023-02-03T04:08:52;1.67;;;1.17;;
55601;SDS011;59921;51.332;12.410;2023-02-03T04:11:17;1.73;;;1.27;;
55601;SDS011;59921;51.332;12.410;2023-02-03T04:14:01;2.33;;;1.33;;
55601;SDS011;59921;51.332;12.410;2023-02-03T04:16:26;1.70;;;1.30;;
55601;SDS011;59921;51.332;12.410;2023-02-03T04:18:52;1.90;;;1.35;;
55601;SDS011;59921;51.332;12.410;2023-02-03T04:21:18;1.98;;;1.27;;
55601;SDS011;59921;51.332;12.410;2023-02-03T04:23:44;2.30;;;1.30;;
55601;SDS011;59921;51.332;12.410;2023-02-03T04:26:09;2.28;;;1.40;;
55601;SDS011;59921;51.332;12.410;2023-02-03T04:28:35;2.15;;;1.15;;
55601;SDS011;59921;51.332;12.410;2023-02-03T04:31:00;1.88;;;1.30;;
55601;SDS011;59921;51.332;12.410;2023-02-03T04:33:26;2.05;;;1.40;;
55601;SDS011;59921;51.332;12.410;2023-02-03T04:35:51;2.00;;;1.50;;
55601;SDS011;59921;51.332;12.410;2023-02-03T04:38:17;2.10;;;1.40;;
55601;SDS011;59921;51.332;12.410;2023-02-03T04:40:42;1.77;;;1.50;;
55601;SDS011;59921;51.332;12.410;2023-02-03T04:43:09;2.00;;;1.40;;
55601;SDS011;59921;51.332;12.410;2023-02-03T04:45:35;2.53;;;1.35;;
55601;SDS011;59921;51.332;12.410;2023-02-03T04:48:01;2.63;;;1.40;;
55601;SDS011;59921;51.332;12.410;2023-02-03T04:50:28;2.92;;;1.70;;
55601;SDS011;59921;51.332;12.410;2023-02-03T04:52:55;2.30;;;1.50;;
55601;SDS011;59921;51.332;12.410;2023-02-03T04:55:22;2.17;;;1.55;;
55601;SDS011;59921;51.332;12.410;2023-02-03T04:57:48;2.67;;;1.60;;
55601;SDS011;59921;51.332;12.410;2023-02-03T05:00:18;1.98;;;1.48;;
55601;SDS011;59921;51.332;12.410;2023-02-03T05:02:44;3.33;;;1.70;;
55601;SDS011;59921;51.332;12.410;2023-02-03T05:05:10;2.42;;;1.67;;
55601;SDS011;59921;51.332;12.410;2023-02-03T05:07:35;3.53;;;1.90;;
55601;SDS011;59921;51.332;12.410;2023-02-03T05:10:01;2.42;;;1.60;;
55601;SDS011;59921;51.332;12.410;2023-02-03T05:12:27;2.95;;;1.85;;
55601;SDS011;59921;51.332;12.410;2023-02-03T05:14:52;2.70;;;1.80;;
55601;SDS011;59921;51.332;12.410;2023-02-03T05:17:20;2.85;;;1.80;;
55601;SDS011;59921;51.332;12.410;2023-02-03T05:19:46;2.22;;;1.70;;
55601;SDS011;59921;51.332;12.410;2023-02-03T05:22:11;2.05;;;1.70;;
55601;SDS011;59921;51.332;12.410;2023-02-03T05:24:37;2.58;;;1.85;;
55601;SDS011;59921;51.332;12.410;2023-02-03T05:27:02;3.03;;;2.20;;
55601;SDS011;59921;51.332;12.410;2023-02-03T05:29:28;3.25;;;1.98;;
55601;SDS011;59921;51.332;12.410;2023-02-03T05:31:53;3.65;;;2.20;;
55601;SDS011;59921;51.332;12.410;2023-02-03T05:34:19;3.25;;;2.33;;
55601;SDS011;59921;51.332;12.410;2023-02-03T05:36:45;3.95;;;2.90;;
55601;SDS011;59921;51.332;12.410;2023-02-03T05:39:10;4.18;;;2.90;;
55601;SDS011;59921;51.332;12.410;2023-02-03T05:41:36;3.63;;;2.63;;
55601;SDS011;59921;51.332;12.410;2023-02-03T05:44:20;6.00;;;3.45;;
55601;SDS011;59921;51.332;12.410;2023-02-03T05:46:51;4.93;;;3.60;;
55601;SDS011;59921;51.332;12.410;2023-02-03T05:49:18;5.60;;;3.90;;
55601;SDS011;59921;51.332;12.410;2023-02-03T05:51:44;5.82;;;4.13;;
55601;SDS011;59921;51.332;12.410;2023-02-03T05:54:10;5.57;;;3.97;;
55601;SDS011;59921;51.332;12.410;2023-02-03T05:56:36;6.32;;;4.03;;
55601;SDS011;59921;51.332;12.410;2023-02-03T05:59:02;6.50;;;4.75;;
55601;SDS011;59921;51.332;12.410;2023-02-03T06:01:29;6.68;;;4.68;;
55601;SDS011;59921;51.332;12.410;2023-02-03T06:03:55;6.07;;;4.35;;
55601;SDS011;59921;51.332;12.410;2023-02-03T06:06:21;6.40;;;4.93;;
55601;SDS011;59921;51.332;12.410;2023-02-03T06:08:47;6.93;;;5.38;;
55601;SDS011;59921;51.332;12.410;2023-02-03T06:11:13;6.60;;;4.63;;
55601;SDS011;59921;51.332;12.410;2023-02-03T06:13:38;6.60;;;4.85;;
55601;SDS011;59921;51.332;12.410;2023-02-03T06:16:04;6.80;;;4.90;;
55601;SDS011;59921;51.332;12.410;2023-02-03T06:18:30;7.60;;;5.22;;
55601;SDS011;59921;51.332;12.410;2023-02-03T06:20:55;13.48;;;5.90;;
55601;SDS011;59921;51.332;12.410;2023-02-03T06:23:21;12.32;;;5.50;;
55601;SDS011;59921;51.332;12.410;2023-02-03T06:25:47;17.17;;;6.15;;
55601;SDS011;59921;51.332;12.410;2023-02-03T06:28:13;18.00;;;6.47;;
55601;SDS011;59921;51.332;12.410;2023-02-03T06:30:39;18.80;;;6.75;;
55601;SDS011;59921;51.332;12.410;2023-02-03T06:33:05;28.00;;;7.28;;
55601;SDS011;59921;51.332;12.410;2023-02-03T06:35:31;21.23;;;6.97;;
55601;SDS011;59921;51.332;12.410;2023-02-03T06:37:56;27.33;;;6.45;;
55601;SDS011;59921;51.332;12.410;2023-02-03T06:40:22;31.33;;;7.65;;
55601;SDS011;59921;51.332;12.410;2023-02-03T06:42:48;31.63;;;7.93;;
55601;SDS011;59921;51.332;12.410;2023-02-03T06:45:15;37.13;;;8.50;;
55601;SDS011;59921;51.332;12.410;2023-02-03T06:47:41;29.52;;;8.57;;
55601;SDS011;59921;51.332;12.410;2023-02-03T06:50:08;30.88;;;7.95;;
55601;SDS011;59921;51.332;12.410;2023-02-03T06:52:36;27.10;;;6.85;;
55601;SDS011;59921;51.332;12.410;2023-02-03T06:55:05;29.10;;;7.38;;
55601;SDS011;59921;51.332;12.410;2023-02-03T06:57:32;24.67;;;7.68;;
55601;SDS011;59921;51.332;12.410;2023-02-03T06:59:58;36.03;;;8.32;;
55601;SDS011;59921;51.332;12.410;2023-02-03T07:02:23;42.33;;;9.25;;
55601;SDS011;59921;51.332;12.410;2023-02-03T07:04:49;30.48;;;7.85;;
55601;SDS011;59921;51.332;12.410;2023-02-03T07:07:15;30.73;;;8.10;;
55601;SDS011;59921;51.332;12.410;2023-02-03T07:09:41;28.98;;;7.63;;
55601;SDS011;59921;51.332;12.410;2023-02-03T07:12:06;33.22;;;8.77;;
55601;SDS011;59921;51.332;12.410;2023-02-03T07:14:33;29.80;;;7.80;;
55601;SDS011;59921;51.332;12.410;2023-02-03T07:17:03;27.15;;;7.55;;
55601;SDS011;59921;51.332;12.410;2023-02-03T07:19:30;28.38;;;7.43;;
55601;SDS011;59921;51.332;12.410;2023-02-03T07:21:55;27.55;;;7.75;;
55601;SDS011;59921;51.332;12.410;2023-02-03T07:24:21;30.85;;;7.57;;
55601;SDS011;59921;51.332;12.410;2023-02-03T07:26:46;23.65;;;7.80;;
55601;SDS011;59921;51.332;12.410;2023-02-03T07:29:12;31.88;;;7.85;;
55601;SDS011;59921;51.332;12.410;2023-02-03T07:31:37;26.70;;;7.78;;
55601;SDS011;59921;51.332;12.410;2023-02-03T07:34:03;29.55;;;8.48;;
55601;SDS011;59921;51.332;12.410;2023-02-03T07:36:29;27.05;;;7.20;;
55601;SDS011;59921;51.332;12.410;2023-02-03T07:38:54;22.73;;;7.05;;
55601;SDS011;59921;51.332;12.410;2023-02-03T07:41:20;25.70;;;7.40;;
55601;SDS011;59921;51.332;12.410;2023-02-03T07:43:46;26.30;;;7.10;;
55601;SDS011;59921;51.332;12.410;2023-02-03T07:46:12;26.52;;;6.95;;
55601;SDS011;59921;51.332;12.410;2023-02-03T07:48:37;21.52;;;6.28;;
55601;SDS011;59921;51.332;12.410;2023-02-03T07:51:03;24.10;;;7.20;;
55601;SDS011;59921;51.332;12.410;2023-02-03T07:53:29;21.63;;;6.78;;
55601;SDS011;59921;51.332;12.410;2023-02-03T07:55:58;26.15;;;6.38;;
55601;SDS011;59921;51.332;12.410;2023-02-03T07:58:27;21.42;;;6.50;;
55601;SDS011;59921;51.332;12.410;2023-02-03T08:00:53;23.17;;;6.68;;
55601;SDS011;59921;51.332;12.410;2023-02-03T08:03:20;21.27;;;6.43;;
55601;SDS011;59921;51.332;12.410;2023-02-03T08:05:46;18.85;;;6.30;;
55601;SDS011;59921;51.332;12.410;2023-02-03T08:08:12;19.67;;;6.78;;
55601;SDS011;59921;51.332;12.410;2023-02-03T08:10:37;21.90;;;5.65;;
55601;SDS011;59921;51.332;12.410;2023-02-03T08:13:03;20.13;;;6.47;;
55601;SDS011;59921;51.332;12.410;2023-02-03T08:15:28;17.42;;;5.63;;
55601;SDS011;59921;51.332;12.410;2023-02-03T08:17:54;18.50;;;5.55;;
55601;SDS011;59921;51.332;12.410;2023-02-03T08:20:19;18.73;;;6.10;;
55601;SDS011;59921;51.332;12.410;2023-02-03T08:22:45;17.02;;;6.15;;
55601;SDS011;59921;51.332;12.410;2023-02-03T08:25:11;20.48;;;5.47;;
55601;SDS011;59921;51.332;12.410;2023-02-03T08:27:37;18.02;;;5.65;;
55601;SDS011;59921;51.332;12.410;2023-02-03T08:30:04;19.75;;;5.78;;
55601;SDS011;59921;51.332;12.410;2023-02-03T08:32:31;15.18;;;5.28;;
55601;SDS011;59921;51.332;12.410;2023-02-03T08:34:57;14.35;;;5.28;;
55601;SDS011;59921;51.332;12.410;2023-02-03T08:37:22;16.52;;;4.93;;
55601;SDS011;59921;51.332;12.410;2023-02-03T08:39:49;14.95;;;4.88;;
55601;SDS011;59921;51.332;12.410;2023-02-03T08:42:15;12.55;;;4.57;;
55601;SDS011;59921;51.332;12.410;2023-02-03T08:44:41;13.30;;;4.75;;
55601;SDS011;59921;51.332;12.410;2023-02-03T08:47:08;16.35;;;4.75;;
55601;SDS011;59921;51.332;12.410;2023-02-03T08:49:35;11.73;;;4.70;;
55601;SDS011;59921;51.332;12.410;2023-02-03T08:52:03;13.13;;;4.57;;
55601;SDS011;59921;51.332;12.410;2023-02-03T08:54:30;12.32;;;4.63;;
55601;SDS011;59921;51.332;12.410;2023-02-03T08:56:56;13.57;;;4.93;;
55601;SDS011;59921;51.332;12.410;2023-02-03T08:59:23;11.85;;;4.68;;
55601;SDS011;59921;51.332;12.410;2023-02-03T09:01:48;13.23;;;5.03;;
55601;SDS011;59921;51.332;12.410;2023-02-03T09:04:15;12.85;;;4.47;;
55601;SDS011;59921;51.332;12.410;2023-02-03T09:06:49;11.52;;;4.13;;
55601;SDS011;59921;51.332;12.410;2023-02-03T09:09:15;13.63;;;4.72;;
55601;SDS011;59921;51.332;12.410;2023-02-03T09:11:41;13.27;;;4.97;;
55601;SDS011;59921;51.332;12.410;2023-02-03T09:14:07;9.73;;;4.07;;
55601;SDS011;59921;51.332;12.410;2023-02-03T09:16:33;10.93;;;4.03;;
55601;SDS011;59921;51.332;12.410;2023-02-03T09:18:58;10.00;;;3.97;;
55601;SDS011;59921;51.332;12.410;2023-02-03T09:21:24;11.25;;;3.83;;
55601;SDS011;59921;51.332;12.410;2023-02-03T09:23:49;11.35;;;3.95;;
55601;SDS011;59921;51.332;12.410;2023-02-03T09:26:15;9.65;;;3.78;;
55601;SDS011;59921;51.332;12.410;2023-02-03T09:28:41;10.18;;;3.88;;
55601;SDS011;59921;51.332;12.410;2023-02-03T09:31:13;8.27;;;3.58;;
55601;SDS011;59921;51.332;12.410;2023-02-03T09:33:42;8.35;;;3.97;;
55601;SDS011;59921;51.332;12.410;2023-02-03T09:36:08;9.93;;;3.75;;
55601;SDS011;59921;51.332;12.410;2023-02-03T09:38:34;9.23;;;4.13;;
55601;SDS011;59921;51.332;12.410;2023-02-03T09:48:52;9.07;;;3.65;;
55601;SDS011;59921;51.332;12.410;2023-02-03T09:51:28;9.18;;;3.90;;
55601;SDS011;59921;51.332;12.410;2023-02-03T09:54:10;6.57;;;3.38;;
55601;SDS011;59921;51.332;12.410;2023-02-03T09:56:42;7.47;;;3.25;;
55601;SDS011;59921;51.332;12.410;2023-02-03T09:59:16;8.15;;;3.40;;
55601;SDS011;59921;51.332;12.410;2023-02-03T10:01:48;7.82;;;2.97;;
55601;SDS011;59921;51.332;12.410;2023-02-03T10:10:03;7.20;;;3.10;;
55601;SDS011;59921;51.332;12.410;2023-02-03T10:12:54;6.90;;;3.03;;
55601;SDS011;59921;51.332;12.410;2023-02-03T10:18:24;5.95;;;2.80;;
55601;SDS011;59921;51.332;12.410;2023-02-03T10:20:57;3.67;;;2.40;;
55601;SDS011;59921;51.332;12.410;2023-02-03T10:23:30;5.43;;;2.72;;
55601;SDS011;59921;51.332;12.410;2023-02-03T10:26:00;6.53;;;2.88;;
55601;SDS011;59921;51.332;12.410;2023-02-03T10:28:29;6.78;;;2.80;;
55601;SDS011;59921;51.332;12.410;2023-02-03T10:31:00;5.55;;;2.60;;
55601;SDS011;59921;51.332;12.410;2023-02-03T10:33:30;6.32;;;2.72;;
55601;SDS011;59921;51.332;12.410;2023-02-03T10:38:58;4.50;;;2.30;;
55601;SDS011;59921;51.332;12.410;2023-02-03T10:41:31;5.78;;;2.50;;
55601;SDS011;59921;51.332;12.410;2023-02-03T10:43:57;4.53;;;2.25;;
55601;SDS011;59921;51.332;12.410;2023-02-03T10:46:28;4.63;;;2.30;;
55601;SDS011;59921;51.332;12.410;2023-02-03T10:48:56;6.40;;;2.55;;
55601;SDS011;59921;51.332;12.410;2023-02-03T10:51:26;6.57;;;2.47;;
55601;SDS011;59921;51.332;12.410;2023-02-03T10:54:00;5.65;;;2.45;;
55601;SDS011;59921;51.332;12.410;2023-02-03T10:56:34;5.30;;;2.20;;
55601;SDS011;59921;51.332;12.410;2023-02-03T10:59:02;6.18;;;2.40;;
55601;SDS011;59921;51.332;12.410;2023-02-03T11:04:30;5.00;;;2.10;;
55601;SDS011;59921;51.332;12.410;2023-02-03T11:06:58;6.03;;;2.40;;
55601;SDS011;59921;51.332;12.410;2023-02-03T11:12:23;4.38;;;2.00;;
55601;SDS011;59921;51.332;12.410;2023-02-03T11:14:49;4.97;;;2.08;;
55601;SDS011;59921;51.332;12.410;2023-02-03T11:17:17;4.38;;;2.00;;
55601;SDS011;59921;51.332;12.410;2023-02-03T11:19:52;3.97;;;2.03;;
55601;SDS011;59921;51.332;12.410;2023-02-03T11:24:52;4.85;;;2.08;;
55601;SDS011;59921;51.332;12.410;2023-02-03T11:27:18;3.58;;;1.95;;
55601;SDS011;59921;51.332;12.410;2023-02-03T11:29:48;4.03;;;2.13;;
55601;SDS011;59921;51.332;12.410;2023-02-03T11:37:37;3.50;;;2.10;;
55601;SDS011;59921;51.332;12.410;2023-02-03T11:42:33;4.53;;;1.85;;
55601;SDS011;59921;51.332;12.410;2023-02-03T11:47:53;4.20;;;1.88;;
55601;SDS011;59921;51.332;12.410;2023-02-03T11:50:25;5.05;;;1.95;;
55601;SDS011;59921;51.332;12.410;2023-02-03T11:56:08;3.95;;;1.73;;
55601;SDS011;59921;51.332;12.410;2023-02-03T12:10:12;5.03;;;2.03;;
55601;SDS011;59921;51.332;12.410;2023-02-03T12:13:12;5.18;;;1.90;;
55601;SDS011;59921;51.332;12.410;2023-02-03T12:22:00;3.65;;;1.80;;
55601;SDS011;59921;51.332;12.410;2023-02-03T12:30:40;2.53;;;1.65;;
55601;SDS011;59921;51.332;12.410;2023-02-03T12:33:15;4.32;;;1.77;;
55601;SDS011;59921;51.332;12.410;2023-02-03T12:35:50;3.35;;;1.83;;
55601;SDS011;59921;51.332;12.410;2023-02-03T12:40:59;2.92;;;1.65;;
55601;SDS011;59921;51.332;12.410;2023-02-03T12:43:35;3.38;;;1.40;;
55601;SDS011;59921;51.332;12.410;2023-02-03T12:46:06;2.83;;;1.67;;
55601;SDS011;59921;51.332;12.410;2023-02-03T12:54:01;3.35;;;1.60;;
55601;SDS011;59921;51.332;12.410;2023-02-03T12:56:36;3.53;;;1.60;;
55601;SDS011;59921;51.332;12.410;2023-02-03T12:59:08;2.47;;;1.60;;
55601;SDS011;59921;51.332;12.410;2023-02-03T13:01:55;2.80;;;1.35;;
55601;SDS011;59921;51.332;12.410;2023-02-03T13:04:30;2.83;;;1.40;;
55601;SDS011;59921;51.332;12.410;2023-02-03T13:20:24;4.00;;;1.45;;
55601;SDS011;59921;51.332;12.410;2023-02-03T13:22:53;2.80;;;1.40;;
55601;SDS011;59921;51.332;12.410;2023-02-03T13:33:19;2.83;;;1.20;;
55601;SDS011;59921;51.332;12.410;2023-02-03T13:43:55;4.60;;;1.48;;
55601;SDS011;59921;51.332;12.410;2023-02-03T13:46:23;1.73;;;1.10;;
55601;SDS011;59921;51.332;12.410;2023-02-03T13:48:53;4.10;;;1.45;;
55601;SDS011;59921;51.332;12.410;2023-02-03T13:51:32;2.92;;;1.20;;
55601;SDS011;59921;51.332;12.410;2023-02-03T13:54:06;1.92;;;1.15;;
55601;SDS011;59921;51.332;12.410;2023-02-03T13:56:37;4.20;;;1.45;;
55601;SDS011;59921;51.332;12.410;2023-02-03T14:01:38;3.10;;;1.30;;
55601;SDS011;59921;51.332;12.410;2023-02-03T14:04:05;2.03;;;1.10;;
55601;SDS011;59921;51.332;12.410;2023-02-03T14:14:40;2.30;;;1.10;;
55601;SDS011;59921;51.332;12.410;2023-02-03T14:17:18;2.53;;;1.10;;
55601;SDS011;59921;51.332;12.410;2023-02-03T14:22:58;2.78;;;1.40;;
55601;SDS011;59921;51.332;12.410;2023-02-03T14:25:44;2.17;;;1.10;;
55601;SDS011;59921;51.332;12.410;2023-02-03T14:28:17;2.40;;;1.20;;
55601;SDS011;59921;51.332;12.410;2023-02-03T14:31:03;2.40;;;1.10;;
55601;SDS011;59921;51.332;12.410;2023-02-03T14:41:52;2.72;;;1.30;;
55601;SDS011;59921;51.332;12.410;2023-02-03T14:53:06;3.28;;;1.30;;
55601;SDS011;59921;51.332;12.410;2023-02-03T14:58:51;2.28;;;1.10;;
55601;SDS011;59921;51.332;12.410;2023-02-03T15:01:22;2.33;;;1.20;;
55601;SDS011;59921;51.332;12.410;2023-02-03T15:06:39;2.30;;;1.15;;
55601;SDS011;59921;51.332;12.410;2023-02-03T15:12:21;2.38;;;1.10;;
55601;SDS011;59921;51.332;12.410;2023-02-03T15:14:48;2.63;;;1.13;;
55601;SDS011;59921;51.332;12.410;2023-02-03T15:17:24;3.10;;;1.30;;
55601;SDS011;59921;51.332;12.410;2023-02-03T15:19:52;3.47;;;1.38;;
55601;SDS011;59921;51.332;12.410;2023-02-03T15:22:22;2.17;;;1.23;;
55601;SDS011;59921;51.332;12.410;2023-02-03T15:24:48;2.80;;;1.30;;
55601;SDS011;59921;51.332;12.410;2023-02-03T15:27:23;3.42;;;1.15;;
55601;SDS011;59921;51.332;12.410;2023-02-03T15:29:50;3.17;;;1.23;;
55601;SDS011;59921;51.332;12.410;2023-02-03T15:32:18;2.65;;;1.10;;
55601;SDS011;59921;51.332;12.410;2023-02-03T15:35:05;1.85;;;1.00;;
55601;SDS011;59921;51.332;12.410;2023-02-03T15:37:45;2.42;;;1.00;;
55601;SDS011;59921;51.332;12.410;2023-02-03T15:40:21;2.92;;;1.17;;
55601;SDS011;59921;51.332;12.410;2023-02-03T15:42:57;3.15;;;1.25;;
55601;SDS011;59921;51.332;12.410;2023-02-03T15:45:33;3.87;;;1.30;;
55601;SDS011;59921;51.332;12.410;2023-02-03T15:51:06;3.05;;;1.23;;
55601;SDS011;59921;51.332;12.410;2023-02-03T15:53:33;2.58;;;1.23;;
55601;SDS011;59921;51.332;12.410;2023-02-03T15:56:16;3.22;;;1.40;;
55601;SDS011;59921;51.332;12.410;2023-02-03T15:58:48;2.30;;;1.20;;
55601;SDS011;59921;51.332;12.410;2023-02-03T16:01:14;2.97;;;1.20;;
55601;SDS011;59921;51.332;12.410;2023-02-03T16:03:46;3.83;;;1.30;;
55601;SDS011;59921;51.332;12.410;2023-02-03T16:08:54;3.45;;;1.30;;
55601;SDS011;59921;51.332;12.410;2023-02-03T16:11:28;2.42;;;1.15;;
55601;SDS011;59921;51.332;12.410;2023-02-03T16:14:01;3.47;;;1.23;;
55601;SDS011;59921;51.332;12.410;2023-02-03T16:19:11;3.20;;;1.20;;
55601;SDS011;59921;51.332;12.410;2023-02-03T16:21:54;3.72;;;1.20;;
55601;SDS011;59921;51.332;12.410;2023-02-03T16:27:20;3.47;;;1.27;;
55601;SDS011;59921;51.332;12.410;2023-02-03T16:33:01;2.78;;;1.20;;
55601;SDS011;59921;51.332;12.410;2023-02-03T16:35:57;3.80;;;1.20;;
55601;SDS011;59921;51.332;12.410;2023-02-03T16:38:51;3.30;;;1.10;;
55601;SDS011;59921;51.332;12.410;2023-02-03T16:41:35;3.50;;;1.13;;
55601;SDS011;59921;51.332;12.410;2023-02-03T16:44:20;3.60;;;1.25;;
55601;SDS011;59921;51.332;12.410;2023-02-03T16:47:14;3.90;;;1.23;;
55601;SDS011;59921;51.332;12.410;2023-02-03T16:50:22;2.75;;;1.20;;
55601;SDS011;59921;51.332;12.410;2023-02-03T16:53:13;3.30;;;1.30;;
55601;SDS011;59921;51.332;12.410;2023-02-03T16:55:59;3.13;;;1.20;;
55601;SDS011;59921;51.332;12.410;2023-02-03T16:58:26;3.75;;;1.10;;
55601;SDS011;59921;51.332;12.410;2023-02-03T17:00:52;3.17;;;1.20;;
55601;SDS011;59921;51.332;12.410;2023-02-03T17:03:19;4.80;;;1.50;;
55601;SDS011;59921;51.332;12.410;2023-02-03T17:05:47;3.65;;;1.45;;
55601;SDS011;59921;51.332;12.410;2023-02-03T17:08:14;3.80;;;1.27;;
55601;SDS011;59921;51.332;12.410;2023-02-03T17:10:41;2.78;;;1.35;;
55601;SDS011;59921;51.332;12.410;2023-02-03T17:13:08;2.90;;;1.40;;
55601;SDS011;59921;51.332;12.410;2023-02-03T17:15:38;2.92;;;1.20;;
55601;SDS011;59921;51.332;12.410;2023-02-03T17:18:04;5.20;;;1.75;;
55601;SDS011;59921;51.332;12.410;2023-02-03T17:20:30;4.15;;;1.20;;
55601;SDS011;59921;51.332;12.410;2023-02-03T17:22:55;2.85;;;1.10;;
55601;SDS011;59921;51.332;12.410;2023-02-03T17:25:21;3.33;;;1.40;;
55601;SDS011;59921;51.332;12.410;2023-02-03T17:27:46;3.40;;;1.40;;
55601;SDS011;59921;51.332;12.410;2023-02-03T17:30:12;3.05;;;1.27;;
55601;SDS011;59921;51.332;12.410;2023-02-03T17:32:38;3.13;;;1.30;;
55601;SDS011;59921;51.332;12.410;2023-02-03T17:35:04;3.72;;;1.48;;
55601;SDS011;59921;51.332;12.410;2023-02-03T17:37:33;4.05;;;1.35;;
55601;SDS011;59921;51.332;12.410;2023-02-03T17:40:00;3.92;;;1.40;;
55601;SDS011;59921;51.332;12.410;2023-02-03T17:42:26;3.85;;;1.30;;
55601;SDS011;59921;51.332;12.410;2023-02-03T17:44:51;2.63;;;1.10;;
55601;SDS011;59921;51.332;12.410;2023-02-03T17:47:17;3.53;;;1.38;;
55601;SDS011;59921;51.332;12.410;2023-02-03T17:49:42;3.75;;;1.30;;
55601;SDS011;59921;51.332;12.410;2023-02-03T17:52:12;3.30;;;1.50;;
55601;SDS011;59921;51.332;12.410;2023-02-03T17:54:37;3.47;;;1.40;;